sensor_id;sensor_type;location;lat;lon;timestamp;P1;durP1;ratioP1;P2;durP2;ratioP2
40489;SDS011;26196;52.302;10.572;2022-10-31T00:00:36;4.07;;;3.00;;
40489;SDS011;26196;52.302;10.572;2022-10-31T00:04:39;4.55;;;2.97;;
40489;SDS011;26196;52.302;10.572;2022-10-31T00:08:40;4.22;;;3.78;;
40489;SDS011;26196;52.302;10.572;2022-10-31T00:12:40;4.32;;;3.20;;
40489;SDS011;26196;52.302;10.572;2022-10-31T00:16:41;6.45;;;3.08;;
40489;SDS011;26196;52.302;10.572;2022-10-31T00:20:41;5.45;;;3.20;;
40489;SDS011;26196;52.302;10.572;2022-10-31T00:24:42;5.93;;;3.65;;
40489;SDS011;26196;52.302;10.572;2022-10-31T00:28:42;6.22;;;4.00;;
40489;SDS011;26196;52.302;10.572;2022-10-31T00:32:43;5.82;;;3.65;;
40489;SDS011;26196;52.302;10.572;2022-10-31T00:36:43;6.50;;;4.25;;
40489;SDS011;26196;52.302;10.572;2022-10-31T00:40:44;5.68;;;3.22;;
40489;SDS011;26196;52.302;10.572;2022-10-31T00:44:44;4.60;;;3.00;;
40489;SDS011;26196;52.302;10.572;2022-10-31T00:48:45;6.18;;;3.30;;
40489;SDS011;26196;52.302;10.572;2022-10-31T00:52:45;5.88;;;4.22;;
40489;SDS011;26196;52.302;10.572;2022-10-31T00:56:46;4.25;;;2.80;;
40489;SDS011;26196;52.302;10.572;2022-10-31T01:00:47;4.72;;;2.70;;
40489;SDS011;26196;52.302;10.572;2022-10-31T01:04:54;4.53;;;2.63;;
40489;SDS011;26196;52.302;10.572;2022-10-31T01:08:55;5.25;;;3.17;;
40489;SDS011;26196;52.302;10.572;2022-10-31T01:12:55;3.45;;;2.60;;
40489;SDS011;26196;52.302;10.572;2022-10-31T01:16:55;4.05;;;2.85;;
40489;SDS011;26196;52.302;10.572;2022-10-31T01:20:57;5.07;;;2.75;;
40489;SDS011;26196;52.302;10.572;2022-10-31T01:24:59;3.67;;;2.35;;
40489;SDS011;26196;52.302;10.572;2022-10-31T01:29:00;5.18;;;2.65;;
40489;SDS011;26196;52.302;10.572;2022-10-31T01:33:04;5.13;;;2.88;;
40489;SDS011;26196;52.302;10.572;2022-10-31T01:37:04;7.53;;;3.55;;
40489;SDS011;26196;52.302;10.572;2022-10-31T01:41:05;3.00;;;2.55;;
40489;SDS011;26196;52.302;10.572;2022-10-31T01:45:09;4.00;;;2.30;;
40489;SDS011;26196;52.302;10.572;2022-10-31T01:49:14;4.28;;;2.58;;
40489;SDS011;26196;52.302;10.572;2022-10-31T01:53:18;4.97;;;2.97;;
40489;SDS011;26196;52.302;10.572;2022-10-31T01:57:19;3.78;;;2.30;;
40489;SDS011;26196;52.302;10.572;2022-10-31T02:01:21;3.95;;;2.75;;
40489;SDS011;26196;52.302;10.572;2022-10-31T02:05:22;5.10;;;2.40;;
40489;SDS011;26196;52.302;10.572;2022-10-31T02:09:29;3.40;;;2.63;;
40489;SDS011;26196;52.302;10.572;2022-10-31T02:13:31;4.18;;;2.55;;
40489;SDS011;26196;52.302;10.572;2022-10-31T02:17:33;3.90;;;2.67;;
40489;SDS011;26196;52.302;10.572;2022-10-31T02:21:37;4.63;;;2.42;;
40489;SDS011;26196;52.302;10.572;2022-10-31T02:26:11;4.07;;;2.63;;
40489;SDS011;26196;52.302;10.572;2022-10-31T02:30:23;5.38;;;2.08;;
40489;SDS011;26196;52.302;10.572;2022-10-31T02:47:22;5.07;;;2.87;;
40489;SDS011;26196;52.302;10.572;2022-10-31T02:51:27;4.65;;;2.42;;
40489;SDS011;26196;52.302;10.572;2022-10-31T02:59:28;3.15;;;2.33;;
40489;SDS011;26196;52.302;10.572;2022-10-31T03:03:49;3.25;;;2.33;;
40489;SDS011;26196;52.302;10.572;2022-10-31T03:08:34;5.22;;;2.95;;
40489;SDS011;26196;52.302;10.572;2022-10-31T03:12:40;6.50;;;3.17;;
40489;SDS011;26196;52.302;10.572;2022-10-31T03:16:49;5.28;;;3.28;;
40489;SDS011;26196;52.302;10.572;2022-10-31T03:20:53;4.38;;;2.42;;
40489;SDS011;26196;52.302;10.572;2022-10-31T03:25:00;4.30;;;2.58;;
40489;SDS011;26196;52.302;10.572;2022-10-31T03:29:08;4.32;;;2.97;;
40489;SDS011;26196;52.302;10.572;2022-10-31T03:33:15;5.13;;;3.47;;
40489;SDS011;26196;52.302;10.572;2022-10-31T03:37:19;4.35;;;2.58;;
40489;SDS011;26196;52.302;10.572;2022-10-31T03:41:23;5.65;;;2.95;;
40489;SDS011;26196;52.302;10.572;2022-10-31T03:45:29;4.22;;;3.20;;
40489;SDS011;26196;52.302;10.572;2022-10-31T03:49:31;5.22;;;3.13;;
40489;SDS011;26196;52.302;10.572;2022-10-31T03:53:39;6.82;;;2.97;;
40489;SDS011;26196;52.302;10.572;2022-10-31T03:57:51;4.60;;;2.90;;
40489;SDS011;26196;52.302;10.572;2022-10-31T04:01:57;4.25;;;2.83;;
40489;SDS011;26196;52.302;10.572;2022-10-31T04:06:03;5.68;;;3.03;;
40489;SDS011;26196;52.302;10.572;2022-10-31T04:10:08;4.63;;;2.80;;
40489;SDS011;26196;52.302;10.572;2022-10-31T04:14:11;5.63;;;2.90;;
40489;SDS011;26196;52.302;10.572;2022-10-31T04:18:12;6.55;;;3.05;;
40489;SDS011;26196;52.302;10.572;2022-10-31T04:22:12;7.25;;;3.20;;
40489;SDS011;26196;52.302;10.572;2022-10-31T04:26:13;5.57;;;2.67;;
40489;SDS011;26196;52.302;10.572;2022-10-31T04:30:13;4.50;;;2.95;;
40489;SDS011;26196;52.302;10.572;2022-10-31T04:34:17;7.25;;;2.90;;
40489;SDS011;26196;52.302;10.572;2022-10-31T04:38:18;5.85;;;3.78;;
40489;SDS011;26196;52.302;10.572;2022-10-31T04:42:18;4.22;;;2.75;;
40489;SDS011;26196;52.302;10.572;2022-10-31T04:46:19;5.05;;;3.17;;
40489;SDS011;26196;52.302;10.572;2022-10-31T04:50:19;5.43;;;3.08;;
40489;SDS011;26196;52.302;10.572;2022-10-31T04:54:20;4.20;;;3.13;;
40489;SDS011;26196;52.302;10.572;2022-10-31T04:58:20;6.47;;;2.97;;
40489;SDS011;26196;52.302;10.572;2022-10-31T05:02:20;4.88;;;3.20;;
40489;SDS011;26196;52.302;10.572;2022-10-31T05:06:21;5.45;;;3.33;;
40489;SDS011;26196;52.302;10.572;2022-10-31T05:10:23;7.32;;;3.33;;
40489;SDS011;26196;52.302;10.572;2022-10-31T05:14:24;5.32;;;3.08;;
40489;SDS011;26196;52.302;10.572;2022-10-31T05:18:25;6.15;;;3.28;;
40489;SDS011;26196;52.302;10.572;2022-10-31T05:22:25;5.43;;;3.40;;
40489;SDS011;26196;52.302;10.572;2022-10-31T05:26:26;4.63;;;3.00;;
40489;SDS011;26196;52.302;10.572;2022-10-31T05:30:28;5.18;;;3.20;;
40489;SDS011;26196;52.302;10.572;2022-10-31T05:34:30;4.72;;;3.00;;
40489;SDS011;26196;52.302;10.572;2022-10-31T05:38:30;5.68;;;3.58;;
40489;SDS011;26196;52.302;10.572;2022-10-31T05:42:30;6.05;;;3.35;;
40489;SDS011;26196;52.302;10.572;2022-10-31T05:46:31;4.03;;;3.22;;
40489;SDS011;26196;52.302;10.572;2022-10-31T05:50:31;5.45;;;3.17;;
40489;SDS011;26196;52.302;10.572;2022-10-31T05:54:32;4.90;;;2.60;;
40489;SDS011;26196;52.302;10.572;2022-10-31T05:58:32;4.70;;;3.35;;
40489;SDS011;26196;52.302;10.572;2022-10-31T06:02:33;4.32;;;2.88;;
40489;SDS011;26196;52.302;10.572;2022-10-31T06:06:34;3.50;;;2.60;;
40489;SDS011;26196;52.302;10.572;2022-10-31T06:10:34;3.78;;;2.92;;
40489;SDS011;26196;52.302;10.572;2022-10-31T06:14:35;3.75;;;2.55;;
40489;SDS011;26196;52.302;10.572;2022-10-31T06:18:35;5.70;;;2.92;;
40489;SDS011;26196;52.302;10.572;2022-10-31T06:22:36;4.47;;;3.28;;
40489;SDS011;26196;52.302;10.572;2022-10-31T06:26:36;5.07;;;3.45;;
40489;SDS011;26196;52.302;10.572;2022-10-31T06:30:37;4.35;;;2.88;;
40489;SDS011;26196;52.302;10.572;2022-10-31T06:34:37;5.32;;;3.28;;
40489;SDS011;26196;52.302;10.572;2022-10-31T06:38:41;4.63;;;2.90;;
40489;SDS011;26196;52.302;10.572;2022-10-31T06:42:42;5.00;;;3.00;;
40489;SDS011;26196;52.302;10.572;2022-10-31T06:46:42;4.28;;;3.05;;
40489;SDS011;26196;52.302;10.572;2022-10-31T06:50:42;4.07;;;2.75;;
40489;SDS011;26196;52.302;10.572;2022-10-31T06:54:44;6.55;;;3.47;;
40489;SDS011;26196;52.302;10.572;2022-10-31T06:58:45;4.85;;;3.38;;
40489;SDS011;26196;52.302;10.572;2022-10-31T07:02:58;5.90;;;3.00;;
40489;SDS011;26196;52.302;10.572;2022-10-31T07:07:00;6.32;;;4.18;;
40489;SDS011;26196;52.302;10.572;2022-10-31T07:11:01;3.97;;;2.60;;
40489;SDS011;26196;52.302;10.572;2022-10-31T07:15:02;4.47;;;2.70;;
40489;SDS011;26196;52.302;10.572;2022-10-31T07:19:02;3.67;;;2.85;;
40489;SDS011;26196;52.302;10.572;2022-10-31T07:23:03;5.30;;;3.35;;
40489;SDS011;26196;52.302;10.572;2022-10-31T07:27:04;4.53;;;2.50;;
40489;SDS011;26196;52.302;10.572;2022-10-31T07:31:05;4.05;;;2.80;;
40489;SDS011;26196;52.302;10.572;2022-10-31T07:35:06;6.30;;;3.50;;
40489;SDS011;26196;52.302;10.572;2022-10-31T07:39:11;4.65;;;2.45;;
40489;SDS011;26196;52.302;10.572;2022-10-31T07:43:12;3.40;;;2.63;;
40489;SDS011;26196;52.302;10.572;2022-10-31T07:47:12;6.40;;;3.10;;
40489;SDS011;26196;52.302;10.572;2022-10-31T07:51:13;4.47;;;2.65;;
40489;SDS011;26196;52.302;10.572;2022-10-31T07:55:14;6.18;;;3.03;;
40489;SDS011;26196;52.302;10.572;2022-10-31T07:59:15;6.55;;;2.67;;
40489;SDS011;26196;52.302;10.572;2022-10-31T08:03:17;5.38;;;2.70;;
40489;SDS011;26196;52.302;10.572;2022-10-31T08:07:18;9.10;;;3.92;;
40489;SDS011;26196;52.302;10.572;2022-10-31T08:11:19;6.07;;;2.90;;
40489;SDS011;26196;52.302;10.572;2022-10-31T08:15:19;16.08;;;4.82;;
40489;SDS011;26196;52.302;10.572;2022-10-31T08:19:20;14.05;;;5.68;;
40489;SDS011;26196;52.302;10.572;2022-10-31T08:23:20;16.73;;;6.07;;
40489;SDS011;26196;52.302;10.572;2022-10-31T08:27:21;22.10;;;6.55;;
40489;SDS011;26196;52.302;10.572;2022-10-31T08:31:21;14.05;;;6.20;;
40489;SDS011;26196;52.302;10.572;2022-10-31T08:35:22;16.50;;;7.45;;
40489;SDS011;26196;52.302;10.572;2022-10-31T08:39:23;15.68;;;8.43;;
40489;SDS011;26196;52.302;10.572;2022-10-31T08:43:23;16.67;;;9.15;;
40489;SDS011;26196;52.302;10.572;2022-10-31T08:47:24;17.80;;;9.57;;
40489;SDS011;26196;52.302;10.572;2022-10-31T08:51:25;19.73;;;8.98;;
40489;SDS011;26196;52.302;10.572;2022-10-31T08:55:25;24.92;;;11.60;;
40489;SDS011;26196;52.302;10.572;2022-10-31T08:59:26;26.25;;;11.32;;
40489;SDS011;26196;52.302;10.572;2022-10-31T09:03:27;18.92;;;8.43;;
40489;SDS011;26196;52.302;10.572;2022-10-31T09:07:29;23.13;;;10.50;;
40489;SDS011;26196;52.302;10.572;2022-10-31T09:11:30;18.02;;;7.47;;
40489;SDS011;26196;52.302;10.572;2022-10-31T09:15:31;18.45;;;7.80;;
40489;SDS011;26196;52.302;10.572;2022-10-31T09:19:32;26.00;;;9.18;;
40489;SDS011;26196;52.302;10.572;2022-10-31T09:23:33;21.40;;;9.18;;
40489;SDS011;26196;52.302;10.572;2022-10-31T09:27:33;32.10;;;12.35;;
40489;SDS011;26196;52.302;10.572;2022-10-31T09:31:34;22.50;;;12.50;;
40489;SDS011;26196;52.302;10.572;2022-10-31T09:35:34;22.95;;;12.95;;
40489;SDS011;26196;52.302;10.572;2022-10-31T09:39:35;26.48;;;10.32;;
40489;SDS011;26196;52.302;10.572;2022-10-31T09:52:30;30.27;;;11.77;;
40489;SDS011;26196;52.302;10.572;2022-10-31T09:56:34;20.70;;;10.48;;
40489;SDS011;26196;52.302;10.572;2022-10-31T10:00:35;17.15;;;9.35;;
40489;SDS011;26196;52.302;10.572;2022-10-31T10:04:38;20.70;;;9.50;;
40489;SDS011;26196;52.302;10.572;2022-10-31T10:08:43;21.33;;;11.82;;
40489;SDS011;26196;52.302;10.572;2022-10-31T10:17:30;28.90;;;13.70;;
40489;SDS011;26196;52.302;10.572;2022-10-31T10:25:53;27.65;;;13.80;;
40489;SDS011;26196;52.302;10.572;2022-10-31T10:30:04;21.70;;;11.90;;
40489;SDS011;26196;52.302;10.572;2022-10-31T10:43:21;26.33;;;12.45;;
40489;SDS011;26196;52.302;10.572;2022-10-31T10:47:25;28.90;;;14.77;;
40489;SDS011;26196;52.302;10.572;2022-10-31T10:51:43;28.23;;;12.70;;
40489;SDS011;26196;52.302;10.572;2022-10-31T11:04:38;20.73;;;10.45;;
40489;SDS011;26196;52.302;10.572;2022-10-31T11:08:40;18.95;;;10.55;;
40489;SDS011;26196;52.302;10.572;2022-10-31T11:12:41;25.67;;;12.75;;
40489;SDS011;26196;52.302;10.572;2022-10-31T11:16:47;20.05;;;10.00;;
40489;SDS011;26196;52.302;10.572;2022-10-31T11:20:51;18.70;;;10.00;;
40489;SDS011;26196;52.302;10.572;2022-10-31T11:24:54;22.45;;;11.15;;
40489;SDS011;26196;52.302;10.572;2022-10-31T11:28:58;19.65;;;9.27;;
40489;SDS011;26196;52.302;10.572;2022-10-31T11:32:59;23.10;;;10.07;;
40489;SDS011;26196;52.302;10.572;2022-10-31T11:37:03;18.90;;;9.30;;
40489;SDS011;26196;52.302;10.572;2022-10-31T11:41:18;17.63;;;9.00;;
40489;SDS011;26196;52.302;10.572;2022-10-31T11:45:29;18.30;;;8.93;;
40489;SDS011;26196;52.302;10.572;2022-10-31T11:49:38;19.13;;;9.25;;
40489;SDS011;26196;52.302;10.572;2022-10-31T11:53:47;14.65;;;8.23;;
40489;SDS011;26196;52.302;10.572;2022-10-31T11:57:51;14.38;;;7.53;;
40489;SDS011;26196;52.302;10.572;2022-10-31T12:01:54;20.30;;;7.35;;
40489;SDS011;26196;52.302;10.572;2022-10-31T12:05:58;18.25;;;7.45;;
40489;SDS011;26196;52.302;10.572;2022-10-31T12:10:00;15.68;;;6.00;;
40489;SDS011;26196;52.302;10.572;2022-10-31T12:14:08;15.75;;;7.70;;
40489;SDS011;26196;52.302;10.572;2022-10-31T12:18:35;11.98;;;6.90;;
40489;SDS011;26196;52.302;10.572;2022-10-31T12:23:01;17.90;;;8.30;;
40489;SDS011;26196;52.302;10.572;2022-10-31T12:27:14;18.93;;;8.13;;
40489;SDS011;26196;52.302;10.572;2022-10-31T12:31:23;21.40;;;9.68;;
40489;SDS011;26196;52.302;10.572;2022-10-31T12:44:06;25.23;;;11.63;;
40489;SDS011;26196;52.302;10.572;2022-10-31T12:48:28;21.05;;;10.13;;
40489;SDS011;26196;52.302;10.572;2022-10-31T13:01:15;20.60;;;9.35;;
40489;SDS011;26196;52.302;10.572;2022-10-31T13:05:28;19.42;;;8.48;;
40489;SDS011;26196;52.302;10.572;2022-10-31T13:09:39;17.80;;;8.80;;
40489;SDS011;26196;52.302;10.572;2022-10-31T13:18:06;12.65;;;6.35;;
40489;SDS011;26196;52.302;10.572;2022-10-31T13:22:15;12.85;;;6.38;;
40489;SDS011;26196;52.302;10.572;2022-10-31T13:30:50;11.82;;;5.15;;
40489;SDS011;26196;52.302;10.572;2022-10-31T13:34:52;10.25;;;4.97;;
40489;SDS011;26196;52.302;10.572;2022-10-31T13:38:57;18.77;;;6.00;;
40489;SDS011;26196;52.302;10.572;2022-10-31T13:47:25;15.65;;;4.63;;
40489;SDS011;26196;52.302;10.572;2022-10-31T13:51:29;15.05;;;5.47;;
40489;SDS011;26196;52.302;10.572;2022-10-31T13:59:36;17.10;;;5.40;;
40489;SDS011;26196;52.302;10.572;2022-10-31T14:03:38;11.57;;;6.30;;
40489;SDS011;26196;52.302;10.572;2022-10-31T14:07:43;19.63;;;4.70;;
40489;SDS011;26196;52.302;10.572;2022-10-31T14:11:46;11.10;;;5.43;;
40489;SDS011;26196;52.302;10.572;2022-10-31T14:15:55;33.55;;;9.32;;
40489;SDS011;26196;52.302;10.572;2022-10-31T14:24:01;44.42;;;7.05;;
40489;SDS011;26196;52.302;10.572;2022-10-31T14:28:20;37.03;;;7.88;;
40489;SDS011;26196;52.302;10.572;2022-10-31T14:32:23;56.38;;;9.55;;
40489;SDS011;26196;52.302;10.572;2022-10-31T14:36:41;20.45;;;7.03;;
40489;SDS011;26196;52.302;10.572;2022-10-31T14:53:30;12.43;;;6.70;;
40489;SDS011;26196;52.302;10.572;2022-10-31T15:01:36;16.15;;;5.70;;
40489;SDS011;26196;52.302;10.572;2022-10-31T15:05:46;16.40;;;5.53;;
40489;SDS011;26196;52.302;10.572;2022-10-31T15:09:57;11.13;;;5.32;;
40489;SDS011;26196;52.302;10.572;2022-10-31T15:14:02;16.40;;;7.78;;
40489;SDS011;26196;52.302;10.572;2022-10-31T15:18:17;10.07;;;4.88;;
40489;SDS011;26196;52.302;10.572;2022-10-31T15:22:22;8.57;;;5.80;;
40489;SDS011;26196;52.302;10.572;2022-10-31T15:26:27;11.32;;;5.97;;
40489;SDS011;26196;52.302;10.572;2022-10-31T15:30:34;12.63;;;6.70;;
40489;SDS011;26196;52.302;10.572;2022-10-31T15:34:37;16.27;;;7.25;;
40489;SDS011;26196;52.302;10.572;2022-10-31T15:38:39;15.65;;;6.18;;
40489;SDS011;26196;52.302;10.572;2022-10-31T15:42:39;14.50;;;6.97;;
40489;SDS011;26196;52.302;10.572;2022-10-31T15:46:41;19.65;;;8.48;;
40489;SDS011;26196;52.302;10.572;2022-10-31T15:50:46;16.77;;;8.27;;
40489;SDS011;26196;52.302;10.572;2022-10-31T15:54:51;21.75;;;9.60;;
40489;SDS011;26196;52.302;10.572;2022-10-31T15:58:56;15.45;;;9.27;;
40489;SDS011;26196;52.302;10.572;2022-10-31T16:07:15;16.73;;;8.40;;
40489;SDS011;26196;52.302;10.572;2022-10-31T16:11:22;20.98;;;9.27;;
40489;SDS011;26196;52.302;10.572;2022-10-31T16:15:27;20.85;;;10.18;;
40489;SDS011;26196;52.302;10.572;2022-10-31T16:19:29;19.73;;;10.80;;
40489;SDS011;26196;52.302;10.572;2022-10-31T16:23:32;21.55;;;9.93;;
40489;SDS011;26196;52.302;10.572;2022-10-31T16:27:33;38.92;;;9.98;;
40489;SDS011;26196;52.302;10.572;2022-10-31T16:31:37;26.45;;;11.30;;
40489;SDS011;26196;52.302;10.572;2022-10-31T16:35:39;20.38;;;10.60;;
40489;SDS011;26196;52.302;10.572;2022-10-31T16:39:39;24.17;;;10.73;;
40489;SDS011;26196;52.302;10.572;2022-10-31T16:43:40;16.98;;;9.43;;
40489;SDS011;26196;52.302;10.572;2022-10-31T16:47:40;23.60;;;10.18;;
40489;SDS011;26196;52.302;10.572;2022-10-31T16:51:41;21.70;;;10.55;;
40489;SDS011;26196;52.302;10.572;2022-10-31T16:55:46;22.20;;;11.77;;
40489;SDS011;26196;52.302;10.572;2022-10-31T16:59:52;22.27;;;11.13;;
40489;SDS011;26196;52.302;10.572;2022-10-31T17:03:56;19.23;;;10.27;;
40489;SDS011;26196;52.302;10.572;2022-10-31T17:07:56;24.17;;;13.07;;
40489;SDS011;26196;52.302;10.572;2022-10-31T17:11:57;23.63;;;10.43;;
40489;SDS011;26196;52.302;10.572;2022-10-31T17:15:58;25.73;;;12.57;;
40489;SDS011;26196;52.302;10.572;2022-10-31T17:20:00;25.70;;;13.68;;
40489;SDS011;26196;52.302;10.572;2022-10-31T17:24:01;27.15;;;11.10;;
40489;SDS011;26196;52.302;10.572;2022-10-31T17:28:01;20.10;;;11.35;;
40489;SDS011;26196;52.302;10.572;2022-10-31T17:32:02;22.65;;;12.27;;
40489;SDS011;26196;52.302;10.572;2022-10-31T17:36:03;18.23;;;11.02;;
40489;SDS011;26196;52.302;10.572;2022-10-31T17:40:04;26.10;;;12.35;;
40489;SDS011;26196;52.302;10.572;2022-10-31T17:44:05;26.75;;;13.30;;
40489;SDS011;26196;52.302;10.572;2022-10-31T17:48:06;24.90;;;12.80;;
40489;SDS011;26196;52.302;10.572;2022-10-31T17:52:08;26.55;;;13.55;;
40489;SDS011;26196;52.302;10.572;2022-10-31T17:56:09;22.17;;;11.68;;
40489;SDS011;26196;52.302;10.572;2022-10-31T18:00:10;25.80;;;14.80;;
40489;SDS011;26196;52.302;10.572;2022-10-31T18:04:13;26.92;;;12.40;;
40489;SDS011;26196;52.302;10.572;2022-10-31T18:08:14;30.05;;;14.20;;
40489;SDS011;26196;52.302;10.572;2022-10-31T18:12:14;28.50;;;14.73;;
40489;SDS011;26196;52.302;10.572;2022-10-31T18:16:16;26.23;;;13.45;;
40489;SDS011;26196;52.302;10.572;2022-10-31T18:20:18;26.55;;;15.20;;
40489;SDS011;26196;52.302;10.572;2022-10-31T18:24:18;29.05;;;14.75;;
40489;SDS011;26196;52.302;10.572;2022-10-31T18:28:19;31.08;;;15.82;;
40489;SDS011;26196;52.302;10.572;2022-10-31T18:32:19;25.60;;;12.18;;
40489;SDS011;26196;52.302;10.572;2022-10-31T18:36:20;28.52;;;15.82;;
40489;SDS011;26196;52.302;10.572;2022-10-31T18:40:21;24.15;;;13.88;;
40489;SDS011;26196;52.302;10.572;2022-10-31T18:44:21;26.85;;;14.50;;
40489;SDS011;26196;52.302;10.572;2022-10-31T18:48:22;25.88;;;13.27;;
40489;SDS011;26196;52.302;10.572;2022-10-31T18:52:22;22.48;;;12.98;;
40489;SDS011;26196;52.302;10.572;2022-10-31T18:56:23;28.05;;;13.57;;
40489;SDS011;26196;52.302;10.572;2022-10-31T19:00:24;24.17;;;14.63;;
40489;SDS011;26196;52.302;10.572;2022-10-31T19:04:25;26.42;;;13.20;;
40489;SDS011;26196;52.302;10.572;2022-10-31T19:08:25;25.75;;;12.85;;
40489;SDS011;26196;52.302;10.572;2022-10-31T19:12:26;20.23;;;12.73;;
40489;SDS011;26196;52.302;10.572;2022-10-31T19:16:27;22.48;;;13.52;;
40489;SDS011;26196;52.302;10.572;2022-10-31T19:20:28;21.65;;;12.50;;
40489;SDS011;26196;52.302;10.572;2022-10-31T19:24:28;22.67;;;12.77;;
40489;SDS011;26196;52.302;10.572;2022-10-31T19:28:29;21.52;;;12.90;;
40489;SDS011;26196;52.302;10.572;2022-10-31T19:32:30;22.65;;;12.63;;
40489;SDS011;26196;52.302;10.572;2022-10-31T19:36:31;21.20;;;13.27;;
40489;SDS011;26196;52.302;10.572;2022-10-31T19:40:31;20.35;;;11.15;;
40489;SDS011;26196;52.302;10.572;2022-10-31T19:44:32;19.45;;;11.48;;
40489;SDS011;26196;52.302;10.572;2022-10-31T19:48:36;16.83;;;11.50;;
40489;SDS011;26196;52.302;10.572;2022-10-31T19:52:37;22.67;;;12.15;;
40489;SDS011;26196;52.302;10.572;2022-10-31T19:56:37;18.83;;;11.55;;
40489;SDS011;26196;52.302;10.572;2022-10-31T20:00:38;18.27;;;11.80;;
40489;SDS011;26196;52.302;10.572;2022-10-31T20:04:39;18.48;;;11.18;;
40489;SDS011;26196;52.302;10.572;2022-10-31T20:08:39;21.27;;;12.48;;
40489;SDS011;26196;52.302;10.572;2022-10-31T20:12:40;20.90;;;10.52;;
40489;SDS011;26196;52.302;10.572;2022-10-31T20:16:40;20.38;;;10.65;;
40489;SDS011;26196;52.302;10.572;2022-10-31T20:20:43;16.90;;;9.80;;
40489;SDS011;26196;52.302;10.572;2022-10-31T20:24:44;18.20;;;10.00;;
40489;SDS011;26196;52.302;10.572;2022-10-31T20:28:44;18.30;;;10.48;;
40489;SDS011;26196;52.302;10.572;2022-10-31T20:32:45;15.65;;;9.73;;
40489;SDS011;26196;52.302;10.572;2022-10-31T20:36:46;17.30;;;9.40;;
40489;SDS011;26196;52.302;10.572;2022-10-31T20:40:47;16.70;;;10.68;;
40489;SDS011;26196;52.302;10.572;2022-10-31T20:44:47;14.32;;;9.05;;
40489;SDS011;26196;52.302;10.572;2022-10-31T20:48:48;13.10;;;8.40;;
40489;SDS011;26196;52.302;10.572;2022-10-31T20:52:49;14.55;;;9.23;;
40489;SDS011;26196;52.302;10.572;2022-10-31T20:56:50;13.68;;;8.70;;
40489;SDS011;26196;52.302;10.572;2022-10-31T21:00:50;14.20;;;8.20;;
40489;SDS011;26196;52.302;10.572;2022-10-31T21:04:51;12.35;;;8.32;;
40489;SDS011;26196;52.302;10.572;2022-10-31T21:08:51;13.10;;;8.85;;
40489;SDS011;26196;52.302;10.572;2022-10-31T21:12:52;13.15;;;8.00;;
40489;SDS011;26196;52.302;10.572;2022-10-31T21:16:53;12.82;;;7.55;;
40489;SDS011;26196;52.302;10.572;2022-10-31T21:20:53;11.32;;;7.57;;
40489;SDS011;26196;52.302;10.572;2022-10-31T21:24:54;12.02;;;8.73;;
40489;SDS011;26196;52.302;10.572;2022-10-31T21:28:55;11.82;;;8.00;;
40489;SDS011;26196;52.302;10.572;2022-10-31T21:32:57;12.23;;;7.53;;
40489;SDS011;26196;52.302;10.572;2022-10-31T21:36:57;13.25;;;8.30;;
40489;SDS011;26196;52.302;10.572;2022-10-31T21:41:02;14.07;;;7.38;;
40489;SDS011;26196;52.302;10.572;2022-10-31T21:45:04;10.80;;;6.90;;
40489;SDS011;26196;52.302;10.572;2022-10-31T21:49:05;12.65;;;8.48;;
40489;SDS011;26196;52.302;10.572;2022-10-31T21:53:05;15.10;;;8.27;;
40489;SDS011;26196;52.302;10.572;2022-10-31T21:57:24;12.88;;;8.55;;
40489;SDS011;26196;52.302;10.572;2022-10-31T22:01:25;10.70;;;7.63;;
40489;SDS011;26196;52.302;10.572;2022-10-31T22:05:27;10.55;;;7.43;;
40489;SDS011;26196;52.302;10.572;2022-10-31T22:09:28;11.65;;;7.70;;
40489;SDS011;26196;52.302;10.572;2022-10-31T22:13:29;10.38;;;7.13;;
40489;SDS011;26196;52.302;10.572;2022-10-31T22:17:30;15.27;;;8.43;;
40489;SDS011;26196;52.302;10.572;2022-10-31T22:21:35;12.52;;;7.78;;
40489;SDS011;26196;52.302;10.572;2022-10-31T22:25:40;11.82;;;7.72;;
40489;SDS011;26196;52.302;10.572;2022-10-31T22:29:40;13.82;;;8.25;;
40489;SDS011;26196;52.302;10.572;2022-10-31T22:33:41;11.93;;;7.78;;
40489;SDS011;26196;52.302;10.572;2022-10-31T22:37:41;15.02;;;7.70;;
40489;SDS011;26196;52.302;10.572;2022-10-31T22:41:42;9.15;;;6.65;;
40489;SDS011;26196;52.302;10.572;2022-10-31T22:45:42;12.60;;;7.55;;
40489;SDS011;26196;52.302;10.572;2022-10-31T22:49:53;13.57;;;8.63;;
40489;SDS011;26196;52.302;10.572;2022-10-31T22:53:53;12.38;;;7.68;;
40489;SDS011;26196;52.302;10.572;2022-10-31T22:57:55;11.48;;;7.55;;
40489;SDS011;26196;52.302;10.572;2022-10-31T23:01:56;9.35;;;6.47;;
40489;SDS011;26196;52.302;10.572;2022-10-31T23:05:57;12.45;;;7.13;;
40489;SDS011;26196;52.302;10.572;2022-10-31T23:09:59;10.05;;;6.63;;
40489;SDS011;26196;52.302;10.572;2022-10-31T23:14:01;11.15;;;8.35;;
40489;SDS011;26196;52.302;10.572;2022-10-31T23:18:10;11.73;;;7.38;;
40489;SDS011;26196;52.302;10.572;2022-10-31T23:22:11;10.80;;;8.13;;
40489;SDS011;26196;52.302;10.572;2022-10-31T23:26:12;10.63;;;7.45;;
40489;SDS011;26196;52.302;10.572;2022-10-31T23:30:31;12.43;;;6.97;;
40489;SDS011;26196;52.302;10.572;2022-10-31T23:34:31;12.30;;;7.38;;
40489;SDS011;26196;52.302;10.572;2022-10-31T23:38:31;11.18;;;7.30;;
40489;SDS011;26196;52.302;10.572;2022-10-31T23:42:32;9.60;;;6.72;;
40489;SDS011;26196;52.302;10.572;2022-10-31T23:46:32;10.45;;;6.93;;
40489;SDS011;26196;52.302;10.572;2022-10-31T23:50:33;8.35;;;6.13;;
40489;SDS011;26196;52.302;10.572;2022-10-31T23:54:33;9.40;;;6.55;;
40489;SDS011;26196;52.302;10.572;2022-10-31T23:58:34;10.63;;;7.10;;
